Time;durP1;ratioP1;P1;durP2;ratioP2;P2;SDS_P1;SDS_P2;PMS_P1;PMS_P2;Temp;Humidity;BMP_temperature;BMP_pressure;BME280_temperature;BME280_humidity;BME280_pressure;Samples;Min_cycle;Max_cycle;Signal;HPM_P1;HPM_P2
2023/03/09 00:01:30;;;;;;;62.53;12.35;;;10.70;99.90;;;;;;5052508;28;20485;-66
2023/03/09 00:03:57;;;;;;;58.38;12.02;;;10.70;99.90;;;;;;5052550;28;20373;-66
2023/03/09 00:06:23;;;;;;;54.42;10.75;;;10.70;99.90;;;;;;5052495;28;20040;-65
2023/03/09 00:08:49;;;;;;;56.13;11.43;;;10.80;99.90;;;;;;5052200;28;20018;-65
2023/03/09 00:11:16;;;;;;;57.65;11.30;;;10.90;99.90;;;;;;5052435;28;20048;-65
2023/03/09 00:13:43;;;;;;;62.15;12.13;;;10.80;99.90;;;;;;5052209;28;20040;-66
2023/03/09 00:16:18;;;;;;;49.05;11.45;;;10.80;99.90;;;;;;5052580;28;20055;-66
2023/03/09 00:18:44;;;;;;;57.90;11.45;;;10.80;99.90;;;;;;5052092;28;20025;-65
2023/03/09 00:23:56;;;;;;;55.17;12.27;;;10.80;99.90;;;;;;5052232;28;20093;-66
2023/03/09 00:26:21;;;;;;;66.28;12.07;;;10.90;99.90;;;;;;5052038;28;20033;-66
2023/03/09 00:28:47;;;;;;;60.30;12.88;;;10.80;99.90;;;;;;5052169;28;20035;-66
2023/03/09 00:31:12;;;;;;;58.63;10.90;;;10.80;99.90;;;;;;5052073;28;20391;-64
2023/03/09 00:33:38;;;;;;;68.18;11.77;;;10.60;99.90;;;;;;5052157;28;20115;-65
2023/03/09 00:36:04;;;;;;;65.90;12.30;;;10.60;99.90;;;;;;5052018;28;20033;-65
2023/03/09 00:38:30;;;;;;;68.75;11.85;;;10.60;99.90;;;;;;5052177;28;20521;-65
2023/03/09 00:40:56;;;;;;;58.80;12.27;;;10.30;99.90;;;;;;5051879;28;20053;-65
2023/03/09 00:43:21;;;;;;;58.50;11.65;;;10.10;99.90;;;;;;5052016;28;20077;-65
2023/03/09 00:45:47;;;;;;;70.45;12.02;;;10.10;99.90;;;;;;5051957;28;20029;-65
2023/03/09 00:48:13;;;;;;;68.95;11.80;;;10.10;99.90;;;;;;5051756;28;20021;-65
2023/03/09 00:50:39;;;;;;;64.60;12.13;;;10.10;99.90;;;;;;5052050;28;20034;-65
2023/03/09 00:53:05;;;;;;;69.65;12.45;;;10.10;99.90;;;;;;5051650;28;20025;-64
2023/03/09 00:55:30;;;;;;;65.38;10.93;;;10.20;99.90;;;;;;5052066;28;20386;-65
2023/03/09 00:57:56;;;;;;;62.65;12.13;;;10.00;99.90;;;;;;5051941;28;20438;-65
2023/03/09 01:00:22;;;;;;;73.03;11.60;;;9.90;99.90;;;;;;5054463;28;20059;-65
2023/03/09 01:02:47;;;;;;;53.58;10.73;;;9.90;99.90;;;;;;5055514;28;20137;-65
2023/03/09 01:05:13;;;;;;;61.85;11.27;;;9.80;99.90;;;;;;5056343;28;20078;-65
2023/03/09 01:07:40;;;;;;;65.50;11.75;;;9.70;99.90;;;;;;5055519;28;20033;-65
2023/03/09 01:10:06;;;;;;;57.88;12.52;;;9.70;99.90;;;;;;5055663;28;20112;-65
2023/03/09 01:12:35;;;;;;;58.22;11.80;;;9.70;99.90;;;;;;5055909;28;20057;-65
2023/03/09 01:15:01;;;;;;;46.97;11.27;;;9.60;99.90;;;;;;5055446;28;20077;-65
2023/03/09 01:17:27;;;;;;;44.45;9.95;;;9.70;99.90;;;;;;5055674;28;20056;-65
2023/03/09 01:19:52;;;;;;;45.35;10.38;;;9.70;99.90;;;;;;5056192;28;20554;-65
2023/03/09 01:22:18;;;;;;;43.95;10.52;;;9.90;99.90;;;;;;5055260;28;20029;-65
2023/03/09 01:24:44;;;;;;;62.08;11.38;;;9.90;99.90;;;;;;5055531;28;20035;-65
2023/03/09 01:27:10;;;;;;;40.08;9.43;;;9.90;99.90;;;;;;5055360;28;20047;-65
2023/03/09 01:29:36;;;;;;;51.55;11.80;;;9.80;99.90;;;;;;5055479;28;20033;-65
2023/03/09 01:32:01;;;;;;;45.00;9.65;;;10.00;99.90;;;;;;5055720;28;20028;-65
2023/03/09 01:34:27;;;;;;;51.10;11.07;;;10.00;99.90;;;;;;5055619;28;20025;-65
2023/03/09 01:36:53;;;;;;;57.55;10.23;;;9.90;99.90;;;;;;5054876;28;20033;-64
2023/03/09 01:39:18;;;;;;;41.45;10.95;;;9.80;99.90;;;;;;5055141;28;20025;-65
2023/03/09 01:41:44;;;;;;;33.80;8.38;;;9.70;99.90;;;;;;5055641;28;20029;-65
2023/03/09 01:44:14;;;;;;;38.42;9.23;;;9.70;99.90;;;;;;5055500;28;20032;-65
2023/03/09 01:46:46;;;;;;;51.20;10.60;;;9.90;99.90;;;;;;5055157;28;20490;-65
2023/03/09 01:49:26;;;;;;;58.67;10.90;;;10.00;99.90;;;;;;5054828;28;20033;-64
2023/03/09 01:52:00;;;;;;;57.88;11.07;;;10.10;99.90;;;;;;5055019;28;20031;-65
2023/03/09 01:54:35;;;;;;;58.00;11.38;;;10.00;99.90;;;;;;5055612;28;20108;-65
2023/03/09 01:57:09;;;;;;;51.30;10.60;;;10.00;99.90;;;;;;5054921;28;20065;-65
2023/03/09 01:59:36;;;;;;;47.38;10.38;;;10.00;99.90;;;;;;5055071;28;20052;-65
2023/03/09 02:02:02;;;;;;;56.78;11.60;;;10.00;99.90;;;;;;5054806;28;20033;-65
2023/03/09 02:04:36;;;;;;;55.67;10.70;;;10.00;99.90;;;;;;5054509;28;20028;-65
2023/03/09 02:07:02;;;;;;;40.78;10.07;;;9.80;99.90;;;;;;5054657;28;20021;-65
2023/03/09 02:09:41;;;;;;;51.40;11.38;;;9.80;99.90;;;;;;5054839;28;20025;-65
2023/03/09 02:12:11;;;;;;;56.58;11.43;;;9.80;99.90;;;;;;5054527;28;20032;-65
2023/03/09 02:14:37;;;;;;;61.85;12.48;;;9.90;99.90;;;;;;5054898;28;20049;-65
2023/03/09 02:17:03;;;;;;;64.00;12.20;;;9.90;99.90;;;;;;5054675;28;20037;-65
2023/03/09 02:19:57;;;;;;;43.47;10.45;;;10.10;99.90;;;;;;5054218;28;20500;-65
2023/03/09 02:22:22;;;;;;;68.18;12.50;;;10.20;99.90;;;;;;5054111;28;20060;-65
2023/03/09 02:24:48;;;;;;;54.45;12.13;;;10.30;99.90;;;;;;5054504;28;20025;-65
2023/03/09 02:27:22;;;;;;;37.80;10.13;;;10.20;99.90;;;;;;5054575;28;20032;-65
2023/03/09 02:29:47;;;;;;;;;;;10.30;99.90;;;;;;5054874;28;20494;-65
2023/03/09 02:32:13;;;;;;;40.85;9.32;;;10.30;99.90;;;;;;5054746;28;19904;-66
2023/03/09 02:34:39;;;;;;;54.60;10.65;;;10.20;99.90;;;;;;5054031;28;20416;-65
2023/03/09 02:37:29;;;;;;;64.57;11.10;;;10.10;99.90;;;;;;5052910;28;20041;-65
2023/03/09 02:39:58;;;;;;;56.78;10.70;;;10.10;99.90;;;;;;5054205;28;20017;-65
2023/03/09 02:42:26;;;;;;;36.33;9.75;;;10.00;99.90;;;;;;5054281;28;20110;-65
2023/03/09 02:44:52;;;;;;;56.35;14.15;;;9.90;99.90;;;;;;5053973;28;20029;-64
2023/03/09 02:47:21;;;;;;;38.08;10.95;;;9.70;99.90;;;;;;5053726;28;20021;-65
2023/03/09 02:49:46;;;;;;;37.30;9.32;;;9.70;99.90;;;;;;5054227;28;20025;-65
2023/03/09 02:52:12;;;;;;;41.58;9.52;;;9.80;99.90;;;;;;5053807;28;20440;-65
2023/03/09 02:54:38;;;;;;;55.92;10.73;;;9.90;99.90;;;;;;5053987;28;20032;-65
2023/03/09 02:57:05;;;;;;;40.67;9.75;;;10.00;99.90;;;;;;5053735;28;20041;-65
2023/03/09 02:59:30;;;;;;;41.22;9.80;;;10.00;99.90;;;;;;5052946;28;20386;-65
2023/03/09 03:01:57;;;;;;;35.63;9.32;;;10.10;99.90;;;;;;5053551;28;20025;-65
2023/03/09 03:04:22;;;;;;;41.78;9.23;;;10.00;99.90;;;;;;5053566;28;20482;-65
2023/03/09 03:06:48;;;;;;;50.65;9.45;;;9.90;99.90;;;;;;5052293;28;20082;-65
2023/03/09 03:09:14;;;;;;;45.97;9.70;;;9.90;99.90;;;;;;5053721;28;20028;-65
2023/03/09 03:11:39;;;;;;;47.33;10.65;;;9.90;99.90;;;;;;5054055;28;20161;-65
2023/03/09 03:14:05;;;;;;;37.95;8.52;;;9.90;99.90;;;;;;5053372;28;20057;-65
2023/03/09 03:16:34;;;;;;;42.92;9.60;;;9.80;99.90;;;;;;5053068;28;20029;-65
2023/03/09 03:18:59;;;;;;;34.75;9.40;;;9.80;99.90;;;;;;5053368;28;20083;-65
2023/03/09 03:21:25;;;;;;;39.28;10.02;;;9.70;99.90;;;;;;5053806;28;20563;-65
2023/03/09 03:23:51;;;;;;;48.83;10.65;;;9.80;99.90;;;;;;5052916;28;20027;-65
2023/03/09 03:26:17;;;;;;;46.75;10.50;;;9.70;99.90;;;;;;5053275;28;20025;-65
2023/03/09 03:28:43;;;;;;;43.72;10.02;;;9.70;99.90;;;;;;5053283;28;20025;-65
2023/03/09 03:31:09;;;;;;;39.17;9.27;;;9.70;99.90;;;;;;5052925;28;20028;-65
2023/03/09 03:33:35;;;;;;;34.78;9.10;;;9.80;99.90;;;;;;5053093;28;20021;-65
2023/03/09 03:36:01;;;;;;;48.40;10.38;;;9.80;99.90;;;;;;5052924;28;20029;-65
2023/03/09 03:38:27;;;;;;;43.78;10.10;;;9.90;99.90;;;;;;5053141;28;20032;-65
2023/03/09 03:40:52;;;;;;;33.33;8.45;;;9.80;99.90;;;;;;5053354;28;20600;-65
2023/03/09 03:43:18;;;;;;;33.42;8.85;;;9.80;99.90;;;;;;5053030;28;20112;-65
2023/03/09 03:45:44;;;;;;;31.63;8.15;;;9.90;99.90;;;;;;5052525;28;20079;-65
2023/03/09 03:48:09;;;;;;;38.92;9.43;;;9.90;99.90;;;;;;5052940;28;20508;-65
2023/03/09 03:50:35;;;;;;;36.45;9.05;;;10.00;99.90;;;;;;5052838;28;20033;-65
2023/03/09 03:53:01;;;;;;;50.17;9.50;;;10.10;99.90;;;;;;5052891;28;20020;-65
2023/03/09 03:55:27;;;;;;;35.22;9.00;;;10.20;99.90;;;;;;5052619;28;20037;-65
2023/03/09 03:57:53;;;;;;;39.35;9.60;;;10.20;99.90;;;;;;5052778;28;20023;-65
2023/03/09 04:00:19;;;;;;;44.33;9.90;;;10.30;99.90;;;;;;5052344;28;20047;-65
2023/03/09 04:02:45;;;;;;;36.22;8.82;;;10.30;99.90;;;;;;5052550;28;20016;-65
2023/03/09 04:05:11;;;;;;;39.70;9.18;;;10.40;99.90;;;;;;5053042;28;20028;-65
2023/03/09 04:07:36;;;;;;;38.17;9.10;;;10.40;99.90;;;;;;5052467;28;20036;-65
2023/03/09 04:10:03;;;;;;;39.35;9.70;;;10.30;99.90;;;;;;5052587;28;20155;-65
2023/03/09 04:12:29;;;;;;;46.47;9.18;;;10.30;99.90;;;;;;5052590;28;20021;-65
2023/03/09 04:14:55;;;;;;;37.83;9.10;;;10.20;99.90;;;;;;5051950;28;20045;-65
2023/03/09 04:17:21;;;;;;;38.53;8.95;;;10.20;99.90;;;;;;5052299;28;20398;-65
2023/03/09 04:19:46;;;;;;;40.42;9.40;;;10.20;99.90;;;;;;5052253;28;20033;-65
2023/03/09 04:22:12;;;;;;;43.33;16.70;;;10.10;99.90;;;;;;5052317;28;20156;-65
2023/03/09 04:24:38;;;;;;;44.88;20.80;;;10.10;99.90;;;;;;5052723;28;20029;-65
2023/03/09 04:27:03;;;;;;;31.98;8.80;;;10.10;99.90;;;;;;5052155;28;20040;-65
2023/03/09 04:29:29;;;;;;;35.97;8.85;;;10.10;99.90;;;;;;5051811;28;20033;-65
2023/03/09 04:31:55;;;;;;;33.10;8.75;;;10.20;99.90;;;;;;5052231;28;20029;-64
2023/03/09 04:34:20;;;;;;;40.30;9.30;;;10.30;99.90;;;;;;5051317;28;20021;-65
2023/03/09 04:36:46;;;;;;;47.20;8.65;;;10.20;99.90;;;;;;5052379;28;20459;-65
2023/03/09 04:39:12;;;;;;;42.70;9.48;;;10.10;99.90;;;;;;5050876;28;20094;-65
2023/03/09 04:41:37;;;;;;;41.45;9.07;;;10.10;99.90;;;;;;5052097;28;20025;-65
2023/03/09 04:44:03;;;;;;;39.10;8.80;;;10.00;99.90;;;;;;5051902;28;20052;-65
2023/03/09 04:46:29;;;;;;;40.40;9.35;;;10.00;99.90;;;;;;5051648;28;20029;-65
2023/03/09 04:48:55;;;;;;;45.45;9.18;;;10.00;99.90;;;;;;5052280;28;20093;-65
2023/03/09 04:51:20;;;;;;;27.65;7.82;;;9.90;99.90;;;;;;5051953;28;20158;-65
2023/03/09 04:53:46;;;;;;;46.40;9.20;;;10.00;99.90;;;;;;5052058;28;20017;-65
2023/03/09 04:56:12;;;;;;;38.90;8.68;;;10.00;99.90;;;;;;5052148;28;20033;-65
2023/03/09 04:58:38;;;;;;;42.15;9.73;;;10.00;99.90;;;;;;5051247;28;20027;-65
2023/03/09 05:01:04;;;;;;;37.13;8.52;;;9.90;99.90;;;;;;5052331;28;20033;-65
2023/03/09 05:03:29;;;;;;;40.75;9.38;;;9.90;99.90;;;;;;5051924;28;20025;-66
2023/03/09 05:05:55;;;;;;;39.67;8.45;;;9.90;99.90;;;;;;5051804;28;20485;-65
2023/03/09 05:08:21;;;;;;;32.75;8.65;;;9.90;99.90;;;;;;5051801;28;20033;-65
2023/03/09 05:10:47;;;;;;;36.30;8.52;;;10.00;99.90;;;;;;5051973;28;20049;-65
2023/03/09 05:13:13;;;;;;;30.00;8.90;;;10.10;99.90;;;;;;5050438;28;20075;-65
2023/03/09 05:15:39;;;;;;;31.80;8.55;;;10.30;99.90;;;;;;5051570;28;20021;-65
2023/03/09 05:18:06;;;;;;;36.25;9.00;;;10.30;99.90;;;;;;5051518;28;20033;-65
2023/03/09 05:20:32;;;;;;;43.80;10.18;;;10.30;99.90;;;;;;5051633;28;20036;-64
2023/03/09 05:22:59;;;;;;;34.33;10.40;;;10.40;99.90;;;;;;5051956;28;20033;-64
2023/03/09 05:25:24;;;;;;;42.03;10.52;;;10.40;99.90;;;;;;5051622;28;20028;-64
2023/03/09 05:27:50;;;;;;;37.63;10.15;;;10.40;99.90;;;;;;5051317;28;20500;-65
2023/03/09 05:30:17;;;;;;;33.60;9.82;;;10.50;99.90;;;;;;5051881;28;20029;-65
2023/03/09 05:32:43;;;;;;;36.42;10.75;;;10.50;99.90;;;;;;5051599;28;20025;-65
2023/03/09 05:35:09;;;;;;;43.95;11.25;;;10.50;99.90;;;;;;5051591;28;20024;-64
2023/03/09 05:37:35;;;;;;;36.75;10.02;;;10.50;99.90;;;;;;5051445;28;20553;-65
2023/03/09 05:40:00;;;;;;;35.75;9.93;;;10.60;99.90;;;;;;5051620;28;20099;-65
2023/03/09 05:42:26;;;;;;;33.85;9.63;;;10.50;99.90;;;;;;5051452;28;20113;-65
2023/03/09 05:44:52;;;;;;;38.78;9.60;;;10.50;99.90;;;;;;5051222;28;20420;-65
2023/03/09 05:47:17;;;;;;;35.95;9.73;;;10.50;99.90;;;;;;5054842;28;20021;-65
2023/03/09 05:49:43;;;;;;;32.90;9.95;;;10.40;99.90;;;;;;5054999;28;20108;-65
2023/03/09 05:52:09;;;;;;;33.58;9.63;;;10.50;99.90;;;;;;5055163;28;20035;-66
2023/03/09 05:54:35;;;;;;;34.45;10.02;;;10.30;99.90;;;;;;5055467;28;20032;-65
2023/03/09 05:57:00;;;;;;;29.25;9.07;;;10.30;99.90;;;;;;5054646;28;20393;-65
2023/03/09 05:59:26;;;;;;;30.48;8.73;;;10.30;99.90;;;;;;5054933;28;20440;-65
2023/03/09 06:01:52;;;;;;;36.08;8.77;;;10.20;99.90;;;;;;5055067;28;20100;-66
2023/03/09 06:04:17;;;;;;;41.13;10.32;;;10.20;99.90;;;;;;5055254;28;20025;-65
2023/03/09 06:06:43;;;;;;;32.15;9.05;;;10.20;99.90;;;;;;5054777;28;20056;-65
2023/03/09 06:09:09;;;;;;;31.67;10.25;;;10.20;99.90;;;;;;5054831;28;20040;-65
2023/03/09 06:11:35;;;;;;;36.58;9.82;;;10.20;99.90;;;;;;5054860;28;20028;-65
2023/03/09 06:14:00;;;;;;;30.23;9.85;;;10.10;99.90;;;;;;5054481;28;20061;-65
2023/03/09 06:16:26;;;;;;;28.80;9.07;;;10.10;99.90;;;;;;5054631;28;20033;-65
2023/03/09 06:18:55;;;;;;;28.05;9.27;;;10.10;99.90;;;;;;5053563;28;20386;-65
2023/03/09 06:21:21;;;;;;;32.20;10.10;;;10.10;99.90;;;;;;5054923;28;20025;-65
2023/03/09 06:23:46;;;;;;;33.03;10.10;;;10.10;99.90;;;;;;5054572;28;20091;-65
2023/03/09 06:26:12;;;;;;;27.85;10.40;;;10.00;99.90;;;;;;5054134;28;20059;-65
2023/03/09 06:28:39;;;;;;;31.88;10.98;;;10.00;99.90;;;;;;5054614;28;20074;-65
2023/03/09 06:31:07;;;;;;;32.08;10.65;;;10.10;99.90;;;;;;5054825;28;20036;-65
2023/03/09 06:33:33;;;;;;;28.88;10.32;;;10.10;99.90;;;;;;5054374;28;20031;-65
2023/03/09 06:36:02;;;;;;;42.17;12.60;;;10.10;99.90;;;;;;5054276;28;20021;-65
2023/03/09 06:38:28;;;;;;;32.40;11.82;;;10.10;99.90;;;;;;5054319;28;20082;-65
2023/03/09 06:40:54;;;;;;;37.20;12.60;;;10.20;99.90;;;;;;5053736;28;20040;-66
2023/03/09 06:43:20;;;;;;;28.98;10.65;;;10.20;99.90;;;;;;5054503;28;20482;-65
2023/03/09 06:45:46;;;;;;;35.67;12.80;;;10.20;99.90;;;;;;5054021;28;20029;-65
2023/03/09 06:48:13;;;;;;;28.25;10.30;;;10.20;99.90;;;;;;5053888;28;20047;-66
2023/03/09 06:50:39;;;;;;;31.77;11.15;;;10.30;99.90;;;;;;5054123;28;20513;-65
2023/03/09 06:53:04;;;;;;;29.02;10.32;;;10.60;99.90;;;;;;5054217;28;20025;-66
2023/03/09 06:55:30;;;;;;;30.27;9.95;;;11.20;99.90;;;;;;5053571;28;20029;-66
2023/03/09 06:57:56;;;;;;;18.70;7.03;;;11.70;99.90;;;;;;5053051;28;20040;-66
2023/03/09 07:00:22;;;;;;;26.65;8.38;;;12.00;99.90;;;;;;5052677;28;20071;-66
2023/03/09 07:02:47;;;;;;;25.77;8.02;;;11.70;99.90;;;;;;5054293;28;20528;-66
2023/03/09 07:05:13;;;;;;;28.48;8.98;;;12.10;99.90;;;;;;5053704;28;20025;-65
2023/03/09 07:07:41;;;;;;;22.80;7.20;;;11.80;99.90;;;;;;5053595;28;20036;-66
2023/03/09 07:10:07;;;;;;;22.65;7.20;;;11.80;99.90;;;;;;5053323;28;20131;-65
2023/03/09 07:12:33;;;;;;;21.00;6.88;;;11.70;99.90;;;;;;5053512;28;20379;-65
2023/03/09 07:14:58;;;;;;;21.77;7.53;;;11.60;99.90;;;;;;5053357;28;20075;-66
2023/03/09 07:17:24;;;;;;;25.75;7.63;;;11.60;99.90;;;;;;5053595;28;20041;-65
2023/03/09 07:19:51;;;;;;;26.10;8.32;;;11.60;99.90;;;;;;5053716;28;20538;-65
2023/03/09 07:22:17;;;;;;;22.95;7.75;;;11.70;99.90;;;;;;5053418;28;20099;-66
2023/03/09 07:24:43;;;;;;;20.13;6.30;;;14.70;99.90;;;;;;5053509;28;20439;-65
2023/03/09 07:27:09;;;;;;;14.60;5.68;;;15.30;99.90;;;;;;5053255;28;20111;-65
2023/03/09 07:29:35;;;;;;;21.42;6.35;;;14.20;99.90;;;;;;5053234;28;20512;-65
2023/03/09 07:32:02;;;;;;;17.83;5.82;;;13.30;99.90;;;;;;5053263;28;20036;-65
2023/03/09 07:34:28;;;;;;;19.45;6.07;;;13.20;99.90;;;;;;5053334;28;20048;-65
2023/03/09 07:36:54;;;;;;;17.55;6.20;;;13.00;99.90;;;;;;5053064;28;20076;-65
2023/03/09 07:39:20;;;;;;;21.02;6.75;;;13.20;99.90;;;;;;5052882;28;20052;-65
2023/03/09 07:41:45;;;;;;;19.52;6.22;;;13.20;99.90;;;;;;5052978;28;20032;-65
2023/03/09 07:44:11;;;;;;;15.55;5.75;;;13.20;99.90;;;;;;5052889;28;20028;-65
2023/03/09 07:46:37;;;;;;;18.63;6.43;;;13.00;99.90;;;;;;5053253;28;20367;-66
2023/03/09 07:49:02;;;;;;;24.95;6.63;;;13.20;99.90;;;;;;5052647;28;20121;-66
2023/03/09 07:51:29;;;;;;;16.40;5.57;;;13.30;99.90;;;;;;5053337;28;20478;-65
2023/03/09 07:53:55;;;;;;;19.38;5.63;;;15.50;99.90;;;;;;5052406;28;20021;-65
2023/03/09 07:56:21;;;;;;;15.75;5.78;;;14.60;99.90;;;;;;5052793;28;20398;-65
2023/03/09 07:58:46;;;;;;;16.98;5.60;;;15.40;99.90;;;;;;5052760;28;20146;-65
2023/03/09 08:01:16;;;;;;;12.73;5.25;;;18.30;99.90;;;;;;5052768;28;20448;-65
2023/03/09 08:03:42;;;;;;;12.02;4.13;;;23.60;99.90;;;;;;5052624;28;20028;-66
2023/03/09 08:06:09;;;;;;;13.43;4.28;;;25.80;99.90;;;;;;5052297;28;20059;-66
2023/03/09 08:08:36;;;;;;;11.02;4.28;;;24.80;99.90;;;;;;5052637;28;20021;-65
2023/03/09 08:11:03;;;;;;;32.22;5.80;;;27.40;99.90;;;;;;5052616;28;20098;-65
2023/03/09 08:13:29;;;;;;;14.73;4.25;;;28.10;99.90;;;;;;5052514;28;20056;-65
2023/03/09 08:15:58;;;;;;;12.02;4.25;;;29.60;99.90;;;;;;5052430;28;20041;-65
2023/03/09 08:18:24;;;;;;;13.07;4.18;;;28.20;99.90;;;;;;5052425;28;20025;-66
2023/03/09 08:20:50;;;;;;;12.68;4.50;;;28.00;99.90;;;;;;5052200;28;20085;-66
2023/03/09 08:23:15;;;;;;;12.80;3.78;;;27.80;99.90;;;;;;5051280;28;20116;-66
2023/03/09 08:25:41;;;;;;;12.98;3.70;;;27.40;99.90;;;;;;5052242;28;20036;-65
2023/03/09 08:28:07;;;;;;;12.63;3.92;;;25.80;99.90;;;;;;5052191;28;20371;-66
2023/03/09 08:30:33;;;;;;;12.77;4.13;;;25.70;99.90;;;;;;5052632;28;20394;-66
2023/03/09 08:32:59;;;;;;;13.18;3.92;;;25.10;99.90;;;;;;5052150;28;20089;-66
2023/03/09 08:35:30;;;;;;;13.13;3.78;;;25.30;99.90;;;;;;5051679;28;20039;-65
2023/03/09 08:37:56;;;;;;;11.85;3.60;;;26.70;99.90;;;;;;5052039;28;20094;-66
2023/03/09 08:40:21;;;;;;;13.35;4.25;;;26.20;99.90;;;;;;5052033;28;20025;-66
2023/03/09 08:42:47;;;;;;;13.77;4.60;;;25.10;99.90;;;;;;5052200;28;20033;-65
2023/03/09 08:45:12;;;;;;;12.40;4.05;;;22.40;99.90;;;;;;5052274;28;20025;-66
2023/03/09 08:47:38;;;;;;;14.25;4.40;;;25.10;99.90;;;;;;5051895;28;20028;-66
2023/03/09 08:50:04;;;;;;;14.32;4.53;;;29.50;99.90;;;;;;5051772;28;20389;-65
2023/03/09 08:52:36;;;;;;;13.30;4.18;;;31.40;99.90;;;;;;5051842;28;20033;-65
2023/03/09 08:55:03;;;;;;;15.00;4.45;;;30.80;99.90;;;;;;5051841;28;20024;-65
2023/03/09 08:57:29;;;;;;;11.18;3.90;;;32.00;99.90;;;;;;5051888;28;20043;-65
2023/03/09 08:59:55;;;;;;;15.88;4.20;;;34.10;99.90;;;;;;5050707;28;20021;-66
2023/03/09 09:02:21;;;;;;;14.13;4.45;;;31.30;99.90;;;;;;5051790;28;20494;-65
2023/03/09 09:04:47;;;;;;;14.00;4.43;;;31.60;99.90;;;;;;5051926;28;20025;-65
2023/03/09 09:07:14;;;;;;;11.57;4.00;;;32.00;99.90;;;;;;5051684;28;20410;-65
2023/03/09 09:09:41;;;;;;;12.45;3.75;;;;;;;;;;5051798;28;20017;-65
2023/03/09 09:12:08;;;;;;;12.00;4.03;;;32.00;99.90;;;;;;5052140;28;20025;-65
2023/03/09 09:14:37;;;;;;;14.25;4.18;;;31.30;99.90;;;;;;5051816;28;20405;-65
2023/03/09 09:17:06;;;;;;;12.85;4.18;;;33.20;99.90;;;;;;5051653;28;20114;-65
2023/03/09 09:19:33;;;;;;;12.57;3.72;;;29.30;99.90;;;;;;5051677;28;20474;-65
2023/03/09 09:21:59;;;;;;;15.32;4.18;;;29.50;99.90;;;;;;5054831;28;20029;-65
2023/03/09 09:24:26;;;;;;;16.17;4.22;;;29.70;99.90;;;;;;5054577;28;20082;-65
2023/03/09 09:26:54;;;;;;;12.23;4.00;;;28.40;99.90;;;;;;5056039;28;20090;-65
2023/03/09 09:29:20;;;;;;;14.48;4.10;;;28.50;99.90;;;;;;5055692;28;20100;-65
2023/03/09 09:31:48;;;;;;;15.20;4.75;;;28.50;99.90;;;;;;5055540;28;20108;-65
2023/03/09 09:34:13;;;;;;;11.95;4.13;;;27.80;99.90;;;;;;5055106;28;20024;-65
2023/03/09 09:36:40;;;;;;;14.90;3.97;;;27.80;99.90;;;;;;5055556;28;20037;-65
2023/03/09 09:39:06;;;;;;;15.27;4.07;;;27.80;99.90;;;;;;5055439;28;20029;-65
2023/03/09 09:41:40;;;;;;;12.82;4.10;;;26.90;99.90;;;;;;5055190;28;20051;-65
2023/03/09 09:44:09;;;;;;;;;;;25.50;99.90;;;;;;5054412;28;20024;-65
2023/03/09 09:46:39;;;;;;;12.88;3.88;;;26.10;99.90;;;;;;5055655;28;20276;-65
2023/03/09 09:49:05;;;;;;;13.95;4.55;;;27.20;99.90;;;;;;5054723;28;20032;-65
2023/03/09 09:51:49;;;;;;;14.35;4.07;;;26.20;99.90;;;;;;5055007;28;20405;-64
2023/03/09 09:54:31;;;;;;;13.55;4.60;;;26.90;99.90;;;;;;5055038;28;20402;-65
2023/03/09 09:57:04;;;;;;;11.90;3.97;;;26.80;99.90;;;;;;5054941;28;20064;-65
2023/03/09 09:59:39;;;;;;;14.73;4.25;;;27.10;99.90;;;;;;5055424;28;20155;-65
2023/03/09 10:02:08;;;;;;;14.23;4.10;;;25.20;99.90;;;;;;5054909;28;20497;-64
2023/03/09 10:04:55;;;;;;;15.95;4.70;;;24.10;99.90;;;;;;5054851;28;20051;-65
2023/03/09 10:07:23;;;;;;;16.52;4.60;;;24.00;99.90;;;;;;5054841;28;20027;-64
2023/03/09 10:09:59;;;;;;;15.68;4.50;;;23.90;99.90;;;;;;5054790;28;20074;-65
2023/03/09 10:12:25;;;;;;;15.13;4.50;;;23.70;99.90;;;;;;5054804;28;20032;-65
2023/03/09 10:15:10;;;;;;;13.60;3.70;;;23.60;99.90;;;;;;5054554;28;20052;-64
2023/03/09 10:17:52;;;;;;;15.45;4.28;;;22.60;99.90;;;;;;5054554;28;20048;-65
2023/03/09 10:20:31;;;;;;;23.63;5.05;;;22.80;99.90;;;;;;5054768;28;20064;-64
2023/03/09 10:22:57;;;;;;;14.32;3.90;;;22.40;99.90;;;;;;5054667;28;20034;-64
2023/03/09 10:25:26;;;;;;;12.25;4.18;;;22.30;99.90;;;;;;5054593;28;20028;-64
2023/03/09 10:28:08;;;;;;;11.90;3.97;;;22.40;99.90;;;;;;5055002;28;20056;-64
2023/03/09 10:30:47;;;;;;;12.80;4.15;;;22.20;99.90;;;;;;5054732;28;20082;-64
2023/03/09 10:33:17;;;;;;;13.32;3.45;;;21.60;99.90;;;;;;5053986;28;20382;-64
2023/03/09 10:36:04;;;;;;;12.68;3.67;;;21.40;99.90;;;;;;5054172;28;20055;-64
2023/03/09 10:38:30;;;;;;;13.80;4.45;;;21.20;99.90;;;;;;5054375;28;20028;-64
2023/03/09 10:40:56;;;;;;;12.75;3.53;;;21.40;99.90;;;;;;5054389;28;20033;-64
2023/03/09 10:43:36;;;;;;;16.92;4.03;;;21.30;99.90;;;;;;5054192;28;20024;-64
2023/03/09 10:46:14;;;;;;;17.20;4.60;;;21.30;99.90;;;;;;5054024;28;20044;-64
2023/03/09 10:48:40;;;;;;;12.05;3.83;;;21.80;99.90;;;;;;5053466;28;20100;-63
2023/03/09 10:51:40;;;;;;;13.38;3.97;;;22.00;99.90;;;;;;5054538;28;20402;-64
2023/03/09 10:54:18;;;;;;;19.27;4.95;;;22.60;99.90;;;;;;5053544;28;20528;-63
2023/03/09 10:56:45;;;;;;;9.98;3.10;;;22.70;99.90;;;;;;5053739;28;20072;-64
2023/03/09 10:59:15;;;;;;;15.50;3.95;;;23.00;99.90;;;;;;5054207;28;20487;-64
2023/03/09 11:01:44;;;;;;;10.43;3.78;;;22.50;99.90;;;;;;5053575;28;20028;-65
2023/03/09 11:04:22;;;;;;;10.05;3.40;;;22.50;99.90;;;;;;5053617;28;20029;-64
2023/03/09 11:07:00;;;;;;;12.77;3.45;;;22.80;99.90;;;;;;5054013;28;20028;-64
2023/03/09 11:09:44;;;;;;;9.82;3.15;;;22.50;99.90;;;;;;5053692;28;20032;-63
2023/03/09 11:12:10;;;;;;;9.43;3.40;;;22.30;99.90;;;;;;5053580;28;20032;-64
2023/03/09 11:14:57;;;;;;;12.48;3.65;;;22.50;99.90;;;;;;5053365;28;20053;-64
2023/03/09 11:17:32;;;;;;;10.68;3.28;;;22.50;99.90;;;;;;5053252;28;20037;-64
2023/03/09 11:20:26;;;;;;;10.75;3.22;;;22.70;99.90;;;;;;5053287;28;20025;-64
2023/03/09 11:23:17;;;;;;;10.75;3.08;;;22.40;99.90;;;;;;5053882;28;20102;-64
2023/03/09 11:25:43;;;;;;;11.50;3.35;;;22.50;99.90;;;;;;5053675;28;20032;-63
2023/03/09 11:28:16;;;;;;;7.47;2.78;;;22.50;99.90;;;;;;5053340;28;20025;-64
2023/03/09 11:30:43;;;;;;;10.07;3.40;;;23.10;99.90;;;;;;5052927;28;20029;-63
2023/03/09 11:33:11;;;;;;;8.95;2.75;;;23.80;99.90;;;;;;5053319;28;20433;-63
2023/03/09 11:35:37;;;;;;;6.50;2.55;;;23.30;99.90;;;;;;5053097;28;20029;-64
2023/03/09 11:38:10;;;;;;;6.93;2.70;;;23.40;99.90;;;;;;5053142;28;20440;-64
2023/03/09 11:40:39;;;;;;;8.52;2.95;;;23.40;99.90;;;;;;5053498;28;20558;-63
2023/03/09 11:43:14;;;;;;;7.35;2.88;;;23.40;99.90;;;;;;5052588;28;20063;-64
2023/03/09 11:45:43;;;;;;;7.65;2.58;;;23.50;99.90;;;;;;5052480;28;20031;-63
2023/03/09 11:48:21;;;;;;;6.82;2.58;;;23.40;99.90;;;;;;5053155;28;20013;-64
2023/03/09 11:50:57;;;;;;;5.90;2.38;;;23.50;99.90;;;;;;5052932;28;20064;-63
2023/03/09 11:53:46;;;;;;;5.38;2.00;;;23.30;99.90;;;;;;5051715;28;20057;-64
2023/03/09 11:56:20;;;;;;;7.18;2.35;;;23.10;99.90;;;;;;5052557;28;20386;-64
2023/03/09 11:58:52;;;;;;;4.90;2.10;;;23.50;99.90;;;;;;5052470;28;20060;-64
2023/03/09 12:01:26;;;;;;;56.63;6.38;;;23.30;99.90;;;;;;5052664;28;20021;-64
2023/03/09 12:04:03;;;;;;;4.07;1.80;;;23.60;99.90;;;;;;5052723;28;20024;-64
2023/03/09 12:06:42;;;;;;;6.75;1.95;;;23.40;99.90;;;;;;5052835;28;20478;-63
2023/03/09 12:09:18;;;;;;;4.88;1.90;;;22.90;99.90;;;;;;5052688;28;20434;-64
2023/03/09 12:11:52;;;;;;;5.82;2.00;;;23.40;99.90;;;;;;5052909;28;20029;-64
2023/03/09 12:14:24;;;;;;;3.70;1.65;;;23.70;99.90;;;;;;5051098;28;20456;-64
2023/03/09 12:16:58;;;;;;;3.53;1.70;;;23.40;99.90;;;;;;5052279;28;20041;-64
2023/03/09 12:19:28;;;;;;;3.95;1.75;;;23.90;99.90;;;;;;5052530;28;20039;-64
2023/03/09 12:22:07;;;;;;;4.30;1.63;;;23.50;99.90;;;;;;5052542;28;20036;-64
2023/03/09 12:25:00;;;;;;;4.82;1.75;;;23.30;99.90;;;;;;5052378;28;20386;-64
2023/03/09 12:27:28;;;;;;;3.72;1.77;;;23.00;99.90;;;;;;5051045;28;20037;-64
2023/03/09 12:29:59;;;;;;;4.70;1.95;;;22.90;99.90;;;;;;5052705;28;20539;-64
2023/03/09 12:32:25;;;;;;;4.78;1.70;;;23.00;99.90;;;;;;5052232;28;20052;-64
2023/03/09 12:34:56;;;;;;;4.70;2.13;;;23.30;99.90;;;;;;5052121;28;20485;-64
2023/03/09 12:37:45;;;;;;;5.75;1.95;;;23.50;99.90;;;;;;5052190;28;20041;-63
2023/03/09 12:40:17;;;;;;;4.00;1.80;;;23.40;99.90;;;;;;5029807;28;20037;-64
2023/03/09 12:42:48;;;;;;;4.30;1.88;;;23.40;99.90;;;;;;5029702;28;20120;-64
2023/03/09 12:45:16;;;;;;;3.40;1.80;;;23.30;99.90;;;;;;5030116;28;20045;-64
2023/03/09 12:47:45;;;;;;;4.20;2.13;;;22.60;99.90;;;;;;5029941;28;20029;-64